createdAt,value
2023-04-04T00:00:22.619Z,31.94
2023-04-04T00:00:54.082Z,31.59
2023-04-04T00:01:25.464Z,31.99
2023-04-04T00:01:56.911Z,31.94
2023-04-04T00:02:28.344Z,31.71
2023-04-04T00:02:59.914Z,31.66
2023-04-04T00:03:31.427Z,31.29
2023-04-04T00:04:03.051Z,31.23
2023-04-04T00:04:34.586Z,31.99
2023-04-04T00:05:06.015Z,31.74
2023-04-04T00:05:37.445Z,31.95
2023-04-04T00:06:08.865Z,31.44
2023-04-04T00:06:40.265Z,31.53
2023-04-04T00:07:11.698Z,31.93
2023-04-04T00:07:43.109Z,32.00
2023-04-04T00:08:14.543Z,32.08
2023-04-04T00:08:45.956Z,31.52
2023-04-04T00:09:17.370Z,31.35
2023-04-04T00:09:48.782Z,31.50
2023-04-04T00:10:20.200Z,31.95
2023-04-04T00:10:51.611Z,31.32
2023-04-04T00:11:23.035Z,31.57
2023-04-04T00:11:54.438Z,31.68
2023-04-04T00:12:28.474Z,31.73
2023-04-04T00:13:01.225Z,31.76
2023-04-04T00:13:32.636Z,31.32
2023-04-04T00:14:04.052Z,32.06
2023-04-04T00:14:35.483Z,32.05
2023-04-04T00:15:06.875Z,31.43
2023-04-04T00:15:38.277Z,31.59
2023-04-04T00:16:09.716Z,31.37
2023-04-04T00:16:41.131Z,31.37
2023-04-04T00:17:12.547Z,31.41
2023-04-04T00:17:44.022Z,31.48
2023-04-04T00:18:15.487Z,31.51
2023-04-04T00:18:46.932Z,31.57
2023-04-04T00:19:18.373Z,31.57
2023-04-04T00:19:49.774Z,31.84
2023-04-04T00:20:21.193Z,31.62
2023-04-04T00:20:52.666Z,31.87
2023-04-04T00:21:24.110Z,31.69
2023-04-04T00:21:55.532Z,32.00
2023-04-04T00:22:26.936Z,31.36
2023-04-04T00:22:58.321Z,31.89
2023-04-04T00:23:29.728Z,31.84
2023-04-04T00:24:01.141Z,31.67
2023-04-04T00:24:32.529Z,31.69
2023-04-04T00:25:03.941Z,31.39
2023-04-04T00:25:35.345Z,31.28
2023-04-04T00:26:06.756Z,31.78
2023-04-04T00:26:38.170Z,31.30
2023-04-04T00:27:09.781Z,31.65
2023-04-04T00:27:41.202Z,32.05
2023-04-04T00:28:12.656Z,31.69
2023-04-04T00:28:44.069Z,31.81
2023-04-04T00:29:15.469Z,32.05
2023-04-04T00:29:46.903Z,31.47
2023-04-04T00:30:18.326Z,31.35
2023-04-04T00:30:49.722Z,31.79
2023-04-04T00:31:21.137Z,31.92
2023-04-04T00:31:52.603Z,31.64
2023-04-04T00:32:24.233Z,31.62
2023-04-04T00:32:55.767Z,31.90
2023-04-04T00:33:27.332Z,31.64
2023-04-04T00:33:58.813Z,31.50
2023-04-04T00:34:30.205Z,31.40
2023-04-04T00:35:01.610Z,31.68
2023-04-04T00:35:33.015Z,31.88
2023-04-04T00:36:04.487Z,31.59
2023-04-04T00:36:35.906Z,31.70
2023-04-04T00:37:07.362Z,32.01
2023-04-04T00:37:38.852Z,31.76
2023-04-04T00:38:10.294Z,32.09
2023-04-04T00:38:41.773Z,31.90
2023-04-04T00:39:13.174Z,31.75
2023-04-04T00:39:44.558Z,31.75
2023-04-04T00:40:15.974Z,31.53
2023-04-04T00:40:47.379Z,31.43
2023-04-04T00:41:18.787Z,31.46
2023-04-04T00:41:50.198Z,31.78
2023-04-04T00:42:21.613Z,31.85
2023-04-04T00:42:53.041Z,31.92
2023-04-04T00:43:24.476Z,31.94
2023-04-04T00:43:55.916Z,31.57
2023-04-04T00:44:27.326Z,31.86
2023-04-04T00:44:58.751Z,31.76
2023-04-04T00:45:30.187Z,32.03
2023-04-04T00:46:01.719Z,31.55
2023-04-04T00:46:33.223Z,32.08
2023-04-04T00:47:04.670Z,31.38
2023-04-04T00:47:36.140Z,31.80
2023-04-04T00:48:07.618Z,31.53
2023-04-04T00:48:39.129Z,31.89
2023-04-04T00:49:10.517Z,31.87
2023-04-04T00:49:41.928Z,31.43
2023-04-04T00:50:13.365Z,31.73
2023-04-04T00:50:44.773Z,31.73
2023-04-04T00:51:16.170Z,31.85
2023-04-04T00:51:47.567Z,32.20
2023-04-04T00:52:18.978Z,31.41
2023-04-04T00:52:50.400Z,31.43
2023-04-04T00:53:21.813Z,31.74
2023-04-04T00:53:53.246Z,31.80
2023-04-04T00:54:24.636Z,31.82
2023-04-04T00:54:56.061Z,31.81
2023-04-04T00:55:27.477Z,31.49
2023-04-04T00:55:58.888Z,31.71
2023-04-04T00:56:30.285Z,31.65
2023-04-04T00:57:01.702Z,31.96
2023-04-04T00:57:33.095Z,31.80
2023-04-04T00:58:04.511Z,32.09
2023-04-04T00:58:35.928Z,31.84
2023-04-04T00:59:07.365Z,31.88
2023-04-04T00:59:39.019Z,31.81
2023-04-04T01:00:10.525Z,32.23
2023-04-04T01:00:42.104Z,31.76
2023-04-04T01:01:13.631Z,31.75
2023-04-04T01:01:45.072Z,31.75
2023-04-04T01:02:16.468Z,31.57
2023-04-04T01:02:47.993Z,31.71
2023-04-04T01:03:19.420Z,31.71
2023-04-04T01:03:50.857Z,31.72
2023-04-04T01:04:22.345Z,31.91
2023-04-04T01:04:53.793Z,32.03
2023-04-04T01:05:25.240Z,31.71
2023-04-04T01:05:56.662Z,31.55
2023-04-04T01:06:28.073Z,31.69
2023-04-04T01:06:59.462Z,31.75
2023-04-04T01:07:31.937Z,31.36
2023-04-04T01:08:03.773Z,32.07
2023-04-04T01:08:35.156Z,31.96
2023-04-04T01:09:06.569Z,31.92
2023-04-04T01:09:37.962Z,31.49
2023-04-04T01:10:09.424Z,31.75
2023-04-04T01:10:41.090Z,31.79
2023-04-04T01:11:12.685Z,31.55
2023-04-04T01:11:44.113Z,31.62
2023-04-04T01:12:15.505Z,31.84
2023-04-04T01:12:46.913Z,32.13
2023-04-04T01:13:18.307Z,32.13
2023-04-04T01:13:49.729Z,31.55
2023-04-04T01:14:21.155Z,31.91
2023-04-04T01:14:52.558Z,32.13
2023-04-04T01:15:23.977Z,31.70
2023-04-04T01:15:55.410Z,31.67
2023-04-04T01:16:26.838Z,31.89
2023-04-04T01:16:58.355Z,31.70
2023-04-04T01:17:29.822Z,31.84
2023-04-04T01:18:01.286Z,31.78
2023-04-04T01:18:32.744Z,31.82
2023-04-04T01:19:04.148Z,32.02
2023-04-04T01:19:35.550Z,31.74
2023-04-04T01:20:07.105Z,31.79
2023-04-04T01:20:38.754Z,31.41
2023-04-04T01:21:10.342Z,31.58
2023-04-04T01:21:41.799Z,31.87
2023-04-04T01:22:13.197Z,31.56
2023-04-04T01:22:44.620Z,32.05
2023-04-04T01:23:16.035Z,31.71
2023-04-04T01:23:47.429Z,31.42
2023-04-04T01:24:18.860Z,31.82
2023-04-04T01:24:50.269Z,31.93
2023-04-04T01:25:21.663Z,31.93
2023-04-04T01:25:53.069Z,31.89
2023-04-04T01:26:24.482Z,31.93
2023-04-04T01:26:56.006Z,31.68
2023-04-04T01:27:27.402Z,31.92
2023-04-04T01:27:58.792Z,31.63
2023-04-04T01:28:30.206Z,32.14
2023-04-04T01:29:01.614Z,31.86
2023-04-04T01:29:33.033Z,31.47
2023-04-04T01:30:04.444Z,31.95
2023-04-04T01:30:35.903Z,31.85
2023-04-04T01:31:07.494Z,31.64
2023-04-04T01:31:38.975Z,31.67
2023-04-04T01:32:10.365Z,31.54
2023-04-04T01:32:41.768Z,31.99
2023-04-04T01:33:13.194Z,31.86
2023-04-04T01:33:44.611Z,31.52
2023-04-04T01:34:16.017Z,31.62
2023-04-04T01:34:47.438Z,31.55
2023-04-04T01:35:18.830Z,31.87
2023-04-04T01:35:50.251Z,31.68
2023-04-04T01:36:21.699Z,31.73
2023-04-04T01:36:53.178Z,31.80
2023-04-04T01:37:24.631Z,31.64
2023-04-04T01:37:56.062Z,31.94
2023-04-04T01:38:27.480Z,32.10
2023-04-04T01:38:58.877Z,31.93
2023-04-04T01:39:30.322Z,31.92
2023-04-04T01:40:01.787Z,31.56
2023-04-04T01:40:33.177Z,31.57
2023-04-04T01:41:04.568Z,31.90
2023-04-04T01:41:35.993Z,31.94
2023-04-04T01:42:07.430Z,31.92
2023-04-04T01:42:38.844Z,32.09
2023-04-04T01:43:10.258Z,32.12
2023-04-04T01:43:41.727Z,31.87
2023-04-04T01:44:13.138Z,32.08
2023-04-04T01:44:44.530Z,32.03
2023-04-04T01:45:15.931Z,32.06
2023-04-04T01:45:47.393Z,31.62
2023-04-04T01:46:18.960Z,32.28
2023-04-04T01:46:50.390Z,31.83
2023-04-04T01:47:21.835Z,32.21
2023-04-04T01:47:53.313Z,31.96
2023-04-04T01:48:24.796Z,31.83
2023-04-04T01:48:56.218Z,32.10
2023-04-04T01:49:27.609Z,31.59
2023-04-04T01:49:59.008Z,31.95
2023-04-04T01:50:30.420Z,31.57
2023-04-04T01:51:01.821Z,31.70
2023-04-04T01:51:33.238Z,32.12
2023-04-04T01:52:04.637Z,31.94
2023-04-04T01:52:36.094Z,32.18
2023-04-04T01:53:07.488Z,31.97
2023-04-04T01:53:38.897Z,31.58
2023-04-04T01:54:10.317Z,31.70
2023-04-04T01:54:41.736Z,31.89
2023-04-04T01:55:13.160Z,31.66
2023-04-04T01:55:44.567Z,31.99
2023-04-04T01:56:15.978Z,31.54
2023-04-04T01:56:47.391Z,32.11
2023-04-04T01:57:18.805Z,32.34
2023-04-04T01:57:50.244Z,32.03
2023-04-04T01:58:21.646Z,31.74
2023-04-04T01:58:53.064Z,32.21
2023-04-04T01:59:24.500Z,31.78
2023-04-04T01:59:55.933Z,32.15
2023-04-04T02:00:27.336Z,32.22
2023-04-04T02:00:58.753Z,31.96
2023-04-04T02:01:30.194Z,32.17
2023-04-04T02:02:01.641Z,32.13
2023-04-04T02:02:33.097Z,32.29
2023-04-04T02:03:04.582Z,32.05
2023-04-04T02:03:35.983Z,31.80
2023-04-04T02:04:07.462Z,32.01
2023-04-04T02:04:38.946Z,31.76
2023-04-04T02:05:10.342Z,32.18
2023-04-04T02:05:41.736Z,31.76
2023-04-04T02:06:13.156Z,31.71
2023-04-04T02:06:44.544Z,32.40
2023-04-04T02:07:15.926Z,32.18
2023-04-04T02:07:47.382Z,31.80
2023-04-04T02:08:18.823Z,31.93
2023-04-04T02:08:50.240Z,32.01
2023-04-04T02:09:21.658Z,31.75
2023-04-04T02:09:53.080Z,32.45
2023-04-04T02:10:24.493Z,32.25
2023-04-04T02:10:55.900Z,31.76
2023-04-04T02:11:27.304Z,31.86
2023-04-04T02:11:58.716Z,31.71
2023-04-04T02:12:30.116Z,32.27
2023-04-04T02:13:01.523Z,31.89
2023-04-04T02:13:32.985Z,32.38
2023-04-04T02:14:04.377Z,32.16
2023-04-04T02:14:35.793Z,32.14
2023-04-04T02:15:07.196Z,31.87
2023-04-04T02:15:38.636Z,32.03
2023-04-04T02:16:10.069Z,32.46
2023-04-04T02:16:41.493Z,32.46
2023-04-04T02:17:12.892Z,32.45
2023-04-04T02:17:44.310Z,31.93
2023-04-04T02:18:15.709Z,31.77
2023-04-04T02:18:47.144Z,32.08
2023-04-04T02:19:18.555Z,32.16
2023-04-04T02:19:49.970Z,31.77
2023-04-04T02:20:21.380Z,32.25
2023-04-04T02:20:52.774Z,31.86
2023-04-04T02:21:24.174Z,31.90
2023-04-04T02:21:55.575Z,32.02
2023-04-04T02:22:26.982Z,32.13
2023-04-04T02:22:58.383Z,32.14
2023-04-04T02:23:29.833Z,32.48
2023-04-04T02:24:01.247Z,32.01
2023-04-04T02:24:32.636Z,32.34
2023-04-04T02:25:04.028Z,32.42
2023-04-04T02:25:35.436Z,32.00
2023-04-04T02:26:06.858Z,31.88
2023-04-04T02:26:38.255Z,32.36
2023-04-04T02:27:09.691Z,32.17
2023-04-04T02:27:41.110Z,32.08
2023-04-04T02:28:12.570Z,32.19
2023-04-04T02:28:44.003Z,32.34
2023-04-04T02:29:15.426Z,32.20
2023-04-04T02:29:46.815Z,31.88
2023-04-04T02:30:18.212Z,32.41
2023-04-04T02:30:49.622Z,32.56
2023-04-04T02:31:21.080Z,32.34
2023-04-04T02:31:52.503Z,32.10
2023-04-04T02:32:23.986Z,32.41
2023-04-04T02:32:55.397Z,32.03
2023-04-04T02:33:26.817Z,32.30
2023-04-04T02:33:58.269Z,32.16
2023-04-04T02:34:29.718Z,32.64
2023-04-04T02:35:01.144Z,32.00
2023-04-04T02:35:32.566Z,32.46
2023-04-04T02:36:04.137Z,32.34
2023-04-04T02:36:35.576Z,32.10
2023-04-04T02:37:07.006Z,32.22
2023-04-04T02:37:38.429Z,31.91
2023-04-04T02:38:09.840Z,31.91
2023-04-04T02:38:41.235Z,32.25
2023-04-04T02:39:12.628Z,32.46
2023-04-04T02:39:44.130Z,31.91
2023-04-04T02:40:15.546Z,32.37
2023-04-04T02:40:46.950Z,32.22
2023-04-04T02:41:18.349Z,32.16
2023-04-04T02:41:49.746Z,31.95
2023-04-04T02:42:21.143Z,32.54
2023-04-04T02:42:52.554Z,32.34
2023-04-04T02:43:23.941Z,32.19
2023-04-04T02:43:55.345Z,32.03
2023-04-04T02:44:26.766Z,32.67
2023-04-04T02:44:58.189Z,32.17
2023-04-04T02:45:29.617Z,32.53
2023-04-04T02:46:07.720Z,32.08
2023-04-04T02:46:46.209Z,32.31
2023-04-04T02:47:17.615Z,32.15
2023-04-04T02:47:49.092Z,32.26
2023-04-04T02:48:20.544Z,32.30
2023-04-04T02:48:51.950Z,32.34
2023-04-04T02:49:23.378Z,31.97
2023-04-04T02:49:54.787Z,32.23
2023-04-04T02:50:26.209Z,32.06
2023-04-04T02:50:57.624Z,32.38
2023-04-04T02:51:29.021Z,32.10
2023-04-04T02:52:00.448Z,32.72
2023-04-04T02:52:31.836Z,32.29
2023-04-04T02:53:03.244Z,32.18
2023-04-04T02:53:34.673Z,32.61
2023-04-04T02:54:06.097Z,32.25
2023-04-04T02:54:37.540Z,32.40
2023-04-04T02:55:08.953Z,32.57
2023-04-04T02:55:40.411Z,31.93
2023-04-04T02:56:11.825Z,32.08
2023-04-04T02:56:43.228Z,32.00
2023-04-04T02:57:14.616Z,32.11
2023-04-04T02:57:46.021Z,31.96
2023-04-04T02:58:17.439Z,32.75
2023-04-04T02:58:48.869Z,32.28
2023-04-04T02:59:20.291Z,32.64
2023-04-04T02:59:51.716Z,32.63
2023-04-04T03:00:23.148Z,32.39
2023-04-04T03:00:54.591Z,32.60
2023-04-04T03:01:26.102Z,32.03
2023-04-04T03:01:57.649Z,32.48
2023-04-04T03:02:29.208Z,32.62
2023-04-04T03:03:00.978Z,32.43
2023-04-04T03:03:32.637Z,32.31
2023-04-04T03:04:04.239Z,32.14
2023-04-04T03:04:35.699Z,32.66
2023-04-04T03:05:07.115Z,32.10
2023-04-04T03:05:38.558Z,32.00
2023-04-04T03:06:10.042Z,32.36
2023-04-04T03:06:41.454Z,32.74
2023-04-04T03:07:12.872Z,32.62
2023-04-04T03:07:44.280Z,32.49
2023-04-04T03:08:15.679Z,32.07
2023-04-04T03:08:47.092Z,32.52
2023-04-04T03:09:18.553Z,32.37
2023-04-04T03:09:50.023Z,32.47
2023-04-04T03:10:21.424Z,32.22
2023-04-04T03:10:52.817Z,32.72
2023-04-04T03:11:24.266Z,32.31
2023-04-04T03:11:55.677Z,32.23
2023-04-04T03:12:27.101Z,32.64
2023-04-04T03:12:58.511Z,32.30
2023-04-04T03:13:29.922Z,32.69
2023-04-04T03:14:01.329Z,32.69
2023-04-04T03:14:32.752Z,32.56
2023-04-04T03:15:04.182Z,32.20
2023-04-04T03:15:35.620Z,32.48
2023-04-04T03:16:07.103Z,32.59
2023-04-04T03:16:38.610Z,32.68
2023-04-04T03:17:10.134Z,32.61
2023-04-04T03:17:41.612Z,32.18
2023-04-04T03:18:13.022Z,31.91
2023-04-04T03:18:44.427Z,32.45
2023-04-04T03:19:15.844Z,32.47
2023-04-04T03:19:47.241Z,32.74
2023-04-04T03:20:18.636Z,32.62
2023-04-04T03:20:50.085Z,32.72
2023-04-04T03:21:21.535Z,32.24
2023-04-04T03:21:52.954Z,32.19
2023-04-04T03:22:24.371Z,32.19
2023-04-04T03:22:55.805Z,32.33
2023-04-04T03:23:27.189Z,32.35
2023-04-04T03:23:58.648Z,32.43
2023-04-04T03:24:30.069Z,32.71
2023-04-04T03:25:01.478Z,32.77
2023-04-04T03:25:32.907Z,32.38
2023-04-04T03:26:04.350Z,32.55
2023-04-04T03:26:35.770Z,32.47
2023-04-04T03:27:07.178Z,32.81
2023-04-04T03:27:38.597Z,32.46
2023-04-04T03:28:10.010Z,32.82
2023-04-04T03:28:41.411Z,32.81
2023-04-04T03:29:12.817Z,32.64
2023-04-04T03:29:44.225Z,32.90
2023-04-04T03:30:15.683Z,32.62
2023-04-04T03:30:47.092Z,32.36
2023-04-04T03:31:18.510Z,32.71
2023-04-04T03:31:49.915Z,32.58
2023-04-04T03:32:21.384Z,32.51
2023-04-04T03:32:52.838Z,32.83
2023-04-04T03:33:24.313Z,32.10
2023-04-04T03:33:55.706Z,32.82
2023-04-04T03:34:27.106Z,32.74
2023-04-04T03:34:58.541Z,32.56
2023-04-04T03:35:29.961Z,32.66
2023-04-04T03:36:01.530Z,32.56
2023-04-04T03:36:32.954Z,32.72
2023-04-04T03:37:04.336Z,32.46
2023-04-04T03:37:35.741Z,32.46
2023-04-04T03:38:07.165Z,32.27
2023-04-04T03:38:38.565Z,32.72
2023-04-04T03:39:09.981Z,32.71
2023-04-04T03:39:41.402Z,32.83
2023-04-04T03:40:12.808Z,32.54
2023-04-04T03:40:44.471Z,32.38
2023-04-04T03:41:16.005Z,32.51
2023-04-04T03:41:47.415Z,32.30
2023-04-04T03:42:18.825Z,32.63
2023-04-04T03:42:50.256Z,32.24
2023-04-04T03:43:21.678Z,32.22
2023-04-04T03:43:53.079Z,32.27
2023-04-04T03:44:24.477Z,32.78
2023-04-04T03:44:55.914Z,32.59
2023-04-04T03:45:27.334Z,32.84
2023-04-04T03:45:58.827Z,32.50
2023-04-04T03:46:30.372Z,32.36
2023-04-04T03:47:01.805Z,32.48
2023-04-04T03:47:33.340Z,32.55
2023-04-04T03:48:04.785Z,32.32
2023-04-04T03:48:36.197Z,32.52
2023-04-04T03:49:07.623Z,32.28
2023-04-04T03:49:39.044Z,32.59
2023-04-04T03:50:10.457Z,32.83
2023-04-04T03:50:42.066Z,32.66
2023-04-04T03:51:13.713Z,32.90
2023-04-04T03:51:45.154Z,32.23
2023-04-04T03:52:16.559Z,32.53
2023-04-04T03:52:47.969Z,32.45
2023-04-04T03:53:19.384Z,32.42
2023-04-04T03:53:50.790Z,32.70
2023-04-04T03:54:22.196Z,32.29
2023-04-04T03:54:53.606Z,32.54
2023-04-04T03:55:25.015Z,32.51
2023-04-04T03:55:56.423Z,32.53
2023-04-04T03:56:27.818Z,32.68
2023-04-04T03:56:59.270Z,32.90
2023-04-04T03:57:30.710Z,32.34
2023-04-04T03:58:02.150Z,32.62
2023-04-04T03:58:33.575Z,32.59
2023-04-04T03:59:05.064Z,32.66
2023-04-04T03:59:36.494Z,32.45
2023-04-04T04:00:07.894Z,32.55
2023-04-04T04:00:39.559Z,32.52
2023-04-04T04:01:11.098Z,32.66
2023-04-04T04:01:42.502Z,32.42
2023-04-04T04:02:13.984Z,32.46
2023-04-04T04:02:45.475Z,32.37
2023-04-04T04:03:17.427Z,32.41
2023-04-04T04:03:49.024Z,32.53
2023-04-04T04:04:20.547Z,32.34
2023-04-04T04:04:51.954Z,32.36
2023-04-04T04:05:23.366Z,32.56
2023-04-04T04:05:54.766Z,32.84
2023-04-04T04:06:26.198Z,32.54
2023-04-04T04:06:57.603Z,32.55
2023-04-04T04:07:29.071Z,32.44
2023-04-04T04:08:00.490Z,32.41
2023-04-04T04:08:31.896Z,32.85
2023-04-04T04:09:03.320Z,32.81
2023-04-04T04:09:34.727Z,32.52
2023-04-04T04:10:06.143Z,32.93
2023-04-04T04:10:37.550Z,32.53
2023-04-04T04:11:08.943Z,32.54
2023-04-04T04:11:40.338Z,32.42
2023-04-04T04:12:11.736Z,32.60
2023-04-04T04:12:43.180Z,32.70
2023-04-04T04:13:14.587Z,32.50
2023-04-04T04:13:46.001Z,32.58
2023-04-04T04:14:17.409Z,32.26
2023-04-04T04:14:48.841Z,32.94
2023-04-04T04:15:20.277Z,32.41
2023-04-04T04:15:51.691Z,32.87
2023-04-04T04:16:23.133Z,32.92
2023-04-04T04:16:54.589Z,32.25
2023-04-04T04:17:26.002Z,32.57
2023-04-04T04:17:57.499Z,32.64
2023-04-04T04:18:28.943Z,33.08
2023-04-04T04:19:00.370Z,32.78
2023-04-04T04:19:31.774Z,32.76
2023-04-04T04:20:03.197Z,32.74
2023-04-04T04:20:34.605Z,32.66
2023-04-04T04:21:05.995Z,32.62
2023-04-04T04:21:37.428Z,32.68
2023-04-04T04:22:08.830Z,32.93
2023-04-04T04:22:40.295Z,32.63
2023-04-04T04:23:11.702Z,32.54
2023-04-04T04:23:43.143Z,32.49
2023-04-04T04:24:14.578Z,32.82
2023-04-04T04:24:45.985Z,32.44
2023-04-04T04:25:17.412Z,33.02
2023-04-04T04:25:48.833Z,32.84
2023-04-04T04:26:20.269Z,33.07
2023-04-04T04:26:51.692Z,33.05
2023-04-04T04:27:23.098Z,32.92
2023-04-04T04:27:54.531Z,33.15
2023-04-04T04:28:34.072Z,32.38
2023-04-04T04:29:05.861Z,33.04
2023-04-04T04:29:37.262Z,32.64
2023-04-04T04:30:08.678Z,32.91
2023-04-04T04:30:40.433Z,32.31
2023-04-04T04:31:12.177Z,32.56
2023-04-04T04:31:43.669Z,32.65
2023-04-04T04:32:15.088Z,32.35
2023-04-04T04:32:46.533Z,32.39
2023-04-04T04:33:17.983Z,32.84
2023-04-04T04:33:49.378Z,32.69
2023-04-04T04:34:20.789Z,33.02
2023-04-04T04:34:52.188Z,32.64
2023-04-04T04:35:23.593Z,32.55
2023-04-04T04:35:55.024Z,32.63
2023-04-04T04:36:26.493Z,32.50
2023-04-04T04:36:57.924Z,32.57
2023-04-04T04:37:29.335Z,32.56
2023-04-04T04:38:00.753Z,32.78
2023-04-04T04:38:32.219Z,32.76
2023-04-04T04:39:03.630Z,32.35
2023-04-04T04:39:35.042Z,32.65
2023-04-04T04:40:06.455Z,32.43
2023-04-04T04:40:37.995Z,33.04
2023-04-04T04:41:09.500Z,32.46
2023-04-04T04:41:40.934Z,32.93
2023-04-04T04:42:12.332Z,33.07
2023-04-04T04:42:43.728Z,33.07
2023-04-04T04:43:15.178Z,32.59
2023-04-04T04:43:46.574Z,32.95
2023-04-04T04:44:17.983Z,33.18
2023-04-04T04:44:49.373Z,32.76
2023-04-04T04:45:20.783Z,32.98
2023-04-04T04:45:52.178Z,33.23
2023-04-04T04:46:23.575Z,32.75
2023-04-04T04:46:55.077Z,33.23
2023-04-04T04:47:26.678Z,32.31
2023-04-04T04:47:58.148Z,33.25
2023-04-04T04:48:29.660Z,32.52
2023-04-04T04:49:01.118Z,32.94
2023-04-04T04:49:32.569Z,32.42
2023-04-04T04:50:03.975Z,32.22
2023-04-04T04:50:35.384Z,32.76
2023-04-04T04:51:06.795Z,32.69
2023-04-04T04:51:38.202Z,32.69
2023-04-04T04:52:09.612Z,33.00
2023-04-04T04:52:41.024Z,33.06
2023-04-04T04:53:12.453Z,32.80
2023-04-04T04:53:43.882Z,33.15
2023-04-04T04:54:15.285Z,32.75
2023-04-04T04:54:46.708Z,32.83
2023-04-04T04:55:18.131Z,32.93
2023-04-04T04:55:49.540Z,32.72
2023-04-04T04:56:20.962Z,32.63
2023-04-04T04:56:52.378Z,32.19
2023-04-04T04:57:23.791Z,32.31
2023-04-04T04:57:55.181Z,32.15
2023-04-04T04:58:27.621Z,32.80
2023-04-04T04:59:00.260Z,32.78
2023-04-04T04:59:31.751Z,32.82
2023-04-04T05:00:03.161Z,32.91
2023-04-04T05:00:34.645Z,32.17
2023-04-04T05:01:06.133Z,32.26
2023-04-04T05:01:37.590Z,32.33
2023-04-04T05:02:09.099Z,32.32
2023-04-04T05:02:40.711Z,32.14
2023-04-04T05:03:12.245Z,32.62
2023-04-04T05:03:43.653Z,32.45
2023-04-04T05:04:15.095Z,32.62
2023-04-04T05:04:46.503Z,32.47
2023-04-04T05:05:17.926Z,32.03
2023-04-04T05:05:49.338Z,32.42
2023-04-04T05:06:20.730Z,32.39
2023-04-04T05:06:52.165Z,31.97
2023-04-04T05:07:23.577Z,32.00
2023-04-04T05:07:54.974Z,32.92
2023-04-04T05:08:26.383Z,32.59
2023-04-04T05:08:57.807Z,32.30
2023-04-04T05:09:29.258Z,32.83
2023-04-04T05:10:00.664Z,32.17
2023-04-04T05:10:32.081Z,31.96
2023-04-04T05:11:05.275Z,31.85
2023-04-04T05:11:37.079Z,32.33
2023-04-04T05:12:08.490Z,32.06
2023-04-04T05:12:39.890Z,32.56
2023-04-04T05:13:11.285Z,32.53
2023-04-04T05:13:42.694Z,31.77
2023-04-04T05:14:14.094Z,32.07
2023-04-04T05:14:45.530Z,31.86
2023-04-04T05:15:16.937Z,32.28
2023-04-04T05:15:48.340Z,32.21
2023-04-04T05:16:19.739Z,32.09
2023-04-04T05:16:51.185Z,32.04
2023-04-04T05:17:22.633Z,32.05
2023-04-04T05:17:54.074Z,32.37
2023-04-04T05:18:25.555Z,32.07
2023-04-04T05:18:56.958Z,32.08
2023-04-04T05:19:28.403Z,32.32
2023-04-04T05:19:59.894Z,31.85
2023-04-04T05:20:31.280Z,31.79
2023-04-04T05:21:02.677Z,32.11
2023-04-04T05:21:34.094Z,32.87
2023-04-04T05:22:05.494Z,32.07
2023-04-04T05:22:36.890Z,32.23
2023-04-04T05:23:08.286Z,31.88
2023-04-04T05:23:39.693Z,32.14
2023-04-04T05:24:11.106Z,32.79
2023-04-04T05:24:42.519Z,32.26
2023-04-04T05:25:13.962Z,32.64
2023-04-04T05:25:45.357Z,31.70
2023-04-04T05:26:16.740Z,31.52
2023-04-04T05:26:48.150Z,31.91
2023-04-04T05:27:19.596Z,31.74
2023-04-04T05:27:51.004Z,31.89
2023-04-04T05:28:22.416Z,32.42
2023-04-04T05:28:53.826Z,31.84
2023-04-04T05:29:25.239Z,31.52
2023-04-04T05:29:56.652Z,32.06
2023-04-04T05:30:28.056Z,31.97
2023-04-04T05:30:59.464Z,32.33
2023-04-04T05:31:30.869Z,32.03
2023-04-04T05:32:02.337Z,32.21
2023-04-04T05:32:33.813Z,31.71
2023-04-04T05:33:05.316Z,31.95
2023-04-04T05:33:36.779Z,32.19
2023-04-04T05:34:08.253Z,31.71
2023-04-04T05:34:39.692Z,31.75
2023-04-04T05:35:11.209Z,31.93
2023-04-04T05:35:42.704Z,31.84
2023-04-04T05:36:14.214Z,32.03
2023-04-04T05:36:45.670Z,31.73
2023-04-04T05:37:17.141Z,31.67
2023-04-04T05:37:48.566Z,31.78
2023-04-04T05:38:20.005Z,32.08
2023-04-04T05:38:51.411Z,31.77
2023-04-04T05:39:22.803Z,31.74
2023-04-04T05:39:54.213Z,31.90
2023-04-04T05:40:25.617Z,31.50
2023-04-04T05:40:57.063Z,31.64
2023-04-04T05:41:28.468Z,31.89
2023-04-04T05:41:59.860Z,32.00
2023-04-04T05:42:31.267Z,31.93
2023-04-04T05:43:02.683Z,31.62
2023-04-04T05:43:34.093Z,31.62
2023-04-04T05:44:05.498Z,32.20
2023-04-04T05:44:36.892Z,32.29
2023-04-04T05:45:08.297Z,32.16
2023-04-04T05:45:41.422Z,32.02
2023-04-04T05:46:13.465Z,32.07
2023-04-04T05:46:44.939Z,31.65
2023-04-04T05:47:16.394Z,31.95
2023-04-04T05:47:47.887Z,31.57
2023-04-04T05:48:19.307Z,31.73
2023-04-04T05:48:50.714Z,31.65
2023-04-04T05:49:22.146Z,32.16
2023-04-04T05:49:53.559Z,32.14
2023-04-04T05:50:24.963Z,31.83
2023-04-04T05:50:56.400Z,31.86
2023-04-04T05:51:27.806Z,31.45
2023-04-04T05:51:59.228Z,32.09
2023-04-04T05:52:30.627Z,32.09
2023-04-04T05:53:02.020Z,31.83
2023-04-04T05:53:33.430Z,31.83
2023-04-04T05:54:04.855Z,31.61
2023-04-04T05:54:36.275Z,31.69
2023-04-04T05:55:07.680Z,31.65
2023-04-04T05:55:39.077Z,32.17
2023-04-04T05:56:10.502Z,32.15
2023-04-04T05:56:41.938Z,31.71
2023-04-04T05:57:13.358Z,31.86
2023-04-04T05:57:44.762Z,31.61
2023-04-04T05:58:16.199Z,31.62
2023-04-04T05:58:47.660Z,31.88
2023-04-04T05:59:19.122Z,31.44
2023-04-04T05:59:50.561Z,31.95
2023-04-04T06:00:21.992Z,32.10
2023-04-04T06:00:53.400Z,31.65
2023-04-04T06:01:24.878Z,31.43
2023-04-04T06:01:56.315Z,31.74
2023-04-04T06:02:27.788Z,31.61
2023-04-04T06:02:59.289Z,31.70
2023-04-04T06:03:30.977Z,31.45
2023-04-04T06:04:02.594Z,31.71
2023-04-04T06:04:34.002Z,31.94
2023-04-04T06:05:05.422Z,32.09
2023-04-04T06:05:36.906Z,31.36
2023-04-04T06:06:08.376Z,31.60
2023-04-04T06:06:39.797Z,31.86
2023-04-04T06:07:11.226Z,31.80
2023-04-04T06:07:42.629Z,31.80
2023-04-04T06:08:14.027Z,32.09
2023-04-04T06:08:53.398Z,31.83
2023-04-04T06:09:25.379Z,31.42
2023-04-04T06:09:56.770Z,31.70
2023-04-04T06:10:28.197Z,31.55
2023-04-04T06:10:59.594Z,31.51
2023-04-04T06:11:30.986Z,31.49
2023-04-04T06:12:02.378Z,31.69
2023-04-04T06:12:33.850Z,31.45
2023-04-04T06:13:05.269Z,31.71
2023-04-04T06:13:36.701Z,31.86
2023-04-04T06:14:08.116Z,31.68
2023-04-04T06:14:39.532Z,31.49
2023-04-04T06:15:10.946Z,32.05
2023-04-04T06:15:42.413Z,31.76
2023-04-04T06:16:13.869Z,31.56
2023-04-04T06:16:45.289Z,31.93
2023-04-04T06:17:16.689Z,31.24
2023-04-04T06:17:48.123Z,31.72
2023-04-04T06:18:19.609Z,31.72
2023-04-04T06:18:51.050Z,31.94
2023-04-04T06:19:22.450Z,32.06
2023-04-04T06:19:53.866Z,31.91
2023-04-04T06:20:25.285Z,32.32
2023-04-04T06:20:56.674Z,32.04
2023-04-04T06:21:28.341Z,32.17
2023-04-04T06:21:59.763Z,32.19
2023-04-04T06:22:31.192Z,32.05
2023-04-04T06:23:03.267Z,32.00
2023-04-04T06:23:35.009Z,32.22
2023-04-04T06:24:06.764Z,31.82
2023-04-04T06:24:41.112Z,32.48
2023-04-04T06:25:12.631Z,31.98
2023-04-04T06:25:44.350Z,31.90
2023-04-04T06:26:15.825Z,32.20
2023-04-04T06:26:47.265Z,32.00
2023-04-04T06:27:18.684Z,32.46
2023-04-04T06:27:50.066Z,32.22
2023-04-04T06:28:21.526Z,32.24
2023-04-04T06:28:52.949Z,32.17
2023-04-04T06:29:24.358Z,32.63
2023-04-04T06:29:55.763Z,32.34
2023-04-04T06:30:27.189Z,32.43
2023-04-04T06:30:58.604Z,32.52
2023-04-04T06:31:30.088Z,32.47
2023-04-04T06:32:01.536Z,32.08
2023-04-04T06:32:32.946Z,32.74
2023-04-04T06:33:04.385Z,32.52
2023-04-04T06:33:35.854Z,32.51
2023-04-04T06:34:07.295Z,32.53
2023-04-04T06:34:38.686Z,32.81
2023-04-04T06:35:10.089Z,32.28
2023-04-04T06:35:41.493Z,32.51
2023-04-04T06:36:12.925Z,32.21
2023-04-04T06:36:44.408Z,32.50
2023-04-04T06:37:15.812Z,32.82
2023-04-04T06:37:47.219Z,32.56
2023-04-04T06:38:19.320Z,32.47
2023-04-04T06:38:50.874Z,32.20
2023-04-04T06:39:22.275Z,32.71
2023-04-04T06:39:53.679Z,32.45
2023-04-04T06:40:25.171Z,32.27
2023-04-04T06:40:59.767Z,32.65
2023-04-04T06:41:31.161Z,32.28
2023-04-04T06:42:02.578Z,32.77
2023-04-04T06:42:34.010Z,32.25
2023-04-04T06:43:05.441Z,32.40
2023-04-04T06:43:36.853Z,32.75
2023-04-04T06:44:08.340Z,32.11
2023-04-04T06:44:39.736Z,32.69
2023-04-04T06:45:11.235Z,32.58
2023-04-04T06:45:42.632Z,32.62